SE-0031 weather

Kolåsens flygfält
Kolåsen, Jämtlande län, Sweden

Public forecast

Using degrees Celsius for public forecast. Weather courtesy of forecast.io.

METAR (pilot weather report)

Closest report is Åre Östersund Airport, 54.7 nm (101.3 km) SE. Retrieved 2019/07/21 02:20 UTC (0 seconds ago):

ESNZ 210220Z AUTO 12007KT 9999 OVC110/// 14/12 Q1012

TAF (pilot weather forecast)

Forecast is more than 12 hours old.

Closest forecast is Trondheim Airport Værnes, 56.1 nm (103.9 km) WSW. Retrieved 2019/07/20 00:57 UTC (1 day ago):

TAF ENVA 202300Z 2100/2124 15008KT 9999 FEW050 BKN080 TEMPO 2118/2124 4000 SHRA BKN006 SCT020CB